Disclaimer

Please do not use the information listed here in-flight or in-navigation, as they are not provided to us by the airports but are provided by volunteers, so they might be outdated.

Search


Regions


Airport information page

No radio frequency information is available.

Airport informations:
Latitude: 07° 13' 08.25" S
Longitude: 039° 16' 12.36" W
Elevation: 1392 feet - 424 meters
Operating hours: From sunrise to sunset (SR-SS)
Operating agency: Civil government, landing fees and diplomatic clearance may be required
Timezone: UTC-3(-2DT)
Fuel: N/A

Runway information:
13/31 - 5905 x 148 feet< - >1800 x 45 meters

Recent METARs:
SBJU 210500Z 10005KT 9999 SCT020 29/15 Q1015
SBJU 210600Z 12005KT 9999 SCT020 28/16 Q1015
SBJU 210600Z 12005KT 9999 SCT020 28/16 Q1015

Airport on the map: